Time;durP1;ratioP1;P1;durP2;ratioP2;P2;SDS_P1;SDS_P2;PMS_P1;PMS_P2;Temp;Humidity;BMP_temperature;BMP_pressure;BME280_temperature;BME280_humidity;BME280_pressure;Samples;Min_cycle;Max_cycle;Signal;HPM_P1;HPM_P2
2022/03/19 00:00:19;;;;;;;46.10;36.15;;;;;;;7.08;66.41;102151.19;1087238;54;20046;-78
2022/03/19 00:01:24;;;;;;;49.72;36.53;;;;;;;7.05;66.28;102151.31;1087498;54;20329;-82
2022/03/19 00:02:28;;;;;;;53.10;37.90;;;;;;;7.14;66.20;102150.91;1093109;39;20676;-79
2022/03/19 00:03:35;;;;;;;60.83;37.08;;;;;;;7.23;65.87;102158.44;1087703;54;20039;-78
2022/03/19 00:04:36;;;;;;;53.88;38.33;;;;;;;7.32;65.58;102143.88;1087845;46;20056;-78
2022/03/19 00:05:41;;;;;;;56.40;35.00;;;;;;;7.17;65.71;102145.44;1087790;54;20034;-78
2022/03/19 00:06:46;;;;;;;48.78;35.03;;;;;;;7.12;66.01;102152.75;1087905;54;20084;-78
2022/03/19 00:07:56;;;;;;;53.10;36.17;;;;;;;7.17;65.75;102150.75;1087630;54;20034;-78
2022/03/19 00:08:58;;;;;;;48.22;34.10;;;;;;;7.04;66.29;102150.44;1087488;54;20047;-78
2022/03/19 00:10:04;;;;;;;51.25;36.58;;;;;;;7.14;65.97;102153.56;1087851;54;20045;-78
2022/03/19 00:11:06;;;;;;;49.97;34.92;;;;;;;7.15;65.97;102149.97;1090283;39;20507;-78
2022/03/19 00:12:14;;;;;;;52.85;37.67;;;;;;;7.05;66.24;102148.66;1092416;39;20484;-79
2022/03/19 00:13:15;;;;;;;49.10;34.97;;;;;;;7.03;66.27;102149.59;1087891;54;20042;-79
2022/03/19 00:14:20;;;;;;;50.65;35.70;;;;;;;7.00;66.36;102152.38;1088076;54;20051;-78
2022/03/19 00:15:21;;;;;;;49.08;35.72;;;;;;;7.02;66.45;102153.19;1087923;54;20047;-79
2022/03/19 00:16:27;;;;;;;50.28;35.50;;;;;;;7.06;66.27;102161.88;1088033;54;20541;-78
2022/03/19 00:17:29;;;;;;;51.85;35.35;;;;;;;7.09;66.04;102150.22;1089006;46;20047;-78
2022/03/19 00:18:37;;;;;;;51.28;36.30;;;;;;;7.02;66.13;102157.66;1088188;54;20042;-79
2022/03/19 00:19:39;;;;;;;49.33;35.88;;;;;;;7.14;65.96;102140.25;1087698;54;20035;-79
2022/03/19 00:20:44;;;;;;;48.63;34.38;;;;;;;7.17;65.80;102148.09;1087815;54;20035;-78
2022/03/19 00:21:46;;;;;;;50.00;34.60;;;;;;;7.08;66.13;102145.88;1087982;54;20054;-78
2022/03/19 00:22:51;;;;;;;51.10;34.78;;;;;;;7.09;65.97;102142.25;1089612;39;20433;-79
2022/03/19 00:23:52;;;;;;;49.58;34.95;;;;;;;7.12;65.87;102147.44;1087965;54;20046;-79
2022/03/19 00:24:57;;;;;;;41.28;31.25;;;;;;;7.11;66.01;102151.03;1087985;54;20128;-79
2022/03/19 00:25:58;;;;;;;46.88;35.08;;;;;;;7.14;65.88;102157.06;1087656;54;20038;-80
2022/03/19 00:27:04;;;;;;;47.38;35.45;;;;;;;7.18;65.84;102147.13;1087959;54;20046;-77
2022/03/19 00:28:08;;;;;;;44.70;33.95;;;;;;;7.13;65.87;102149.16;1087802;54;21205;-78
2022/03/19 00:29:10;;;;;;;46.15;33.40;;;;;;;7.11;66.14;102145.72;1088150;54;20039;-78
2022/03/19 00:30:14;;;;;;;49.33;33.72;;;;;;;7.14;66.27;102134.94;1088009;54;20022;-80
2022/03/19 00:31:18;;;;;;;49.92;34.67;;;;;;;7.09;66.10;102144.91;1088057;54;20038;-77
2022/03/19 00:32:20;;;;;;;49.47;34.20;;;;;;;7.11;65.94;102145.72;1088004;54;20045;-78
2022/03/19 00:33:24;;;;;;;52.53;35.15;;;;;;;7.09;66.27;102144.91;1087989;54;20026;-80
2022/03/19 00:34:29;;;;;;;55.47;34.90;;;;;;;7.11;65.99;102140.38;1088036;54;20047;-78
2022/03/19 00:35:34;;;;;;;49.38;35.80;;;;;;;7.13;66.06;102147.34;1087887;54;20035;-78
2022/03/19 00:36:36;;;;;;;55.17;37.72;;;;;;;7.30;65.37;102143.91;1087932;54;20046;-79
2022/03/19 00:37:47;;;;;;;48.85;34.85;;;;;;;7.09;65.81;102145.78;1088306;46;20025;-78
2022/03/19 00:38:49;;;;;;;48.75;33.22;;;;;;;7.05;66.17;102141.53;1087984;54;20042;-78
2022/03/19 00:39:53;;;;;;;53.83;35.75;;;;;;;7.05;66.17;102146.00;1089616;46;20050;-77
2022/03/19 00:40:58;;;;;;;52.45;34.38;;;;;;;7.01;66.24;102146.13;1087725;54;20026;-78
2022/03/19 00:41:59;;;;;;;49.53;35.55;;;;;;;7.07;65.88;102133.50;1089085;46;20043;-79
2022/03/19 00:43:04;;;;;;;49.92;36.10;;;;;;;6.95;66.14;102134.91;1087981;54;20034;-79
2022/03/19 00:44:06;;;;;;;48.92;33.22;;;;;;;6.98;66.30;102138.31;1090067;46;20069;-79
2022/03/19 00:45:11;;;;;;;49.33;34.97;;;;;;;6.94;66.45;102146.50;1088276;54;20034;-78
2022/03/19 00:46:18;;;;;;;46.97;33.72;;;;;;;6.95;66.48;102141.09;1087947;54;20042;-77
2022/03/19 00:47:20;;;;;;;49.55;34.80;;;;;;;6.99;66.37;102141.81;1089069;46;20021;-77
2022/03/19 00:48:24;;;;;;;47.92;34.67;;;;;;;6.89;66.52;102136.06;1088017;54;20033;-78
2022/03/19 00:49:28;;;;;;;52.95;35.13;;;;;;;7.09;66.23;102136.94;1088083;54;20030;-77
2022/03/19 00:50:32;;;;;;;52.63;33.72;;;;;;;6.94;66.25;102139.38;1087915;54;20023;-77
2022/03/19 00:51:38;;;;;;;48.03;34.00;;;;;;;6.97;66.44;102146.34;1087922;54;20015;-77
2022/03/19 00:52:45;;;;;;;51.50;35.35;;;;;;;6.92;66.37;102135.91;1087398;54;20106;-77
2022/03/19 00:53:47;;;;;;;49.38;34.20;;;;;;;6.99;66.08;102136.50;1087611;46;20131;-79
2022/03/19 00:54:51;;;;;;;50.17;35.08;;;;;;;6.99;66.13;102137.34;1086935;54;20061;-78
2022/03/19 00:55:56;;;;;;;46.80;33.55;;;;;;;6.90;66.37;102135.13;1086658;54;20063;-78
2022/03/19 00:56:57;;;;;;;47.53;34.63;;;;;;;6.95;66.21;102141.09;1086964;54;20042;-78
2022/03/19 00:58:02;;;;;;;52.40;36.05;;;;;;;7.07;66.08;102137.00;1087098;54;20050;-77
2022/03/19 00:59:05;;;;;;;48.35;34.67;;;;;;;6.98;66.23;102135.66;1087484;39;20453;-78
2022/03/19 01:00:12;;;;;;;49.97;36.20;;;;;;;7.01;66.04;102130.16;1088726;46;20035;-78
2022/03/19 01:01:13;;;;;;;49.88;34.28;;;;;;;6.97;66.20;102131.25;1087118;54;20102;-78
2022/03/19 01:02:18;;;;;;;47.85;34.15;;;;;;;6.98;66.14;102142.75;1086330;54;20039;-77
2022/03/19 01:03:19;;;;;;;48.63;34.97;;;;;;;6.89;66.41;102130.75;1086719;54;20042;-79
2022/03/19 01:04:24;;;;;;;47.17;33.20;;;;;;;6.87;66.55;102143.25;1086423;54;20034;-78
2022/03/19 01:05:28;;;;;;;50.53;34.78;;;;;;;6.91;66.32;102133.34;1086704;54;20066;-78
2022/03/19 01:06:32;;;;;;;50.92;35.92;;;;;;;6.96;66.23;102129.53;1086787;54;20042;-78
2022/03/19 01:07:41;;;;;;;46.47;34.28;;;;;;;6.89;66.51;102127.22;1086685;54;20045;-80
2022/03/19 01:08:45;;;;;;;51.03;35.13;;;;;;;6.91;66.55;102133.34;1087158;39;20500;-78
2022/03/19 01:09:47;;;;;;;48.45;34.42;;;;;;;6.99;66.42;102140.00;1086900;54;20054;-79
2022/03/19 01:10:51;;;;;;;45.47;34.42;;;;;;;6.84;66.32;102130.97;1086584;54;20065;-78
2022/03/19 01:11:54;;;;;;;49.83;34.90;;;;;;;6.92;66.52;102130.59;1087660;39;20540;-78
2022/03/19 01:12:59;;;;;;;49.08;33.35;;;;;;;6.80;66.66;102132.03;1086535;54;20074;-78
2022/03/19 01:14:01;;;;;;;45.63;33.65;;;;;;;6.78;66.87;102133.03;1086425;54;20027;-78
2022/03/19 01:15:06;;;;;;;47.38;34.53;;;;;;;6.74;66.78;102132.31;1089322;46;20033;-78
2022/03/19 01:16:08;;;;;;;46.72;33.65;;;;;;;6.72;66.84;102128.84;1088428;54;20035;-79
2022/03/19 01:17:12;;;;;;;43.92;31.35;;;;;;;6.70;66.84;102128.94;1088110;54;20031;-78
2022/03/19 01:18:17;;;;;;;48.08;34.63;;;;;;;6.96;66.64;102129.53;1087231;54;20058;-78
2022/03/19 01:19:52;;;;;;;49.20;33.50;;;;;;;6.84;66.74;102128.31;1085920;54;20042;-78
2022/03/19 01:20:45;;;;;;;49.20;34.47;;;;;;;6.77;66.86;102136.63;1086321;54;20034;-80
2022/03/19 01:21:47;;;;;;;51.53;34.47;;;;;;;6.76;66.94;102119.78;1086674;54;20039;-78
2022/03/19 01:22:51;;;;;;;49.28;33.30;;;;;;;6.70;66.91;102136.91;1087014;54;20042;-78
2022/03/19 01:23:53;;;;;;;49.15;34.28;;;;;;;6.81;66.74;102124.91;1086405;54;20031;-78
2022/03/19 01:24:59;;;;;;;49.45;35.42;;;;;;;6.78;66.92;102127.72;1086979;54;20062;-78
2022/03/19 01:26:01;;;;;;;51.10;34.55;;;;;;;6.75;66.79;102133.16;1086723;54;20042;-78
2022/03/19 01:27:05;;;;;;;49.10;34.03;;;;;;;6.69;66.76;102129.84;1087381;39;20456;-78
2022/03/19 01:28:09;;;;;;;45.72;32.85;;;;;;;6.67;67.11;102128.19;1086637;54;20034;-79
2022/03/19 01:29:11;;;;;;;45.67;33.38;;;;;;;6.69;67.01;102132.50;1086328;54;20041;-78
2022/03/19 01:30:18;;;;;;;49.88;34.92;;;;;;;6.89;66.80;102124.56;1086412;54;20744;-78
2022/03/19 01:31:21;;;;;;;51.95;35.00;;;;;;;6.82;66.54;102134.59;1086790;54;20050;-78
2022/03/19 01:32:25;;;;;;;52.30;33.72;;;;;;;6.78;66.81;102133.03;1086755;54;20070;-78
2022/03/19 01:33:27;;;;;;;49.45;34.92;;;;;;;6.73;66.74;102135.91;1086819;54;20038;-78
2022/03/19 01:34:31;;;;;;;45.90;34.20;;;;;;;6.67;67.20;102130.84;1086967;54;20058;-78
2022/03/19 01:35:33;;;;;;;48.60;34.60;;;;;;;6.60;67.48;102127.63;1086794;54;20038;-78
2022/03/19 01:36:39;;;;;;;45.67;32.53;;;;;;;6.64;67.22;102126.53;1086692;54;20031;-77
2022/03/19 01:37:41;;;;;;;46.58;33.95;;;;;;;6.65;67.25;102128.25;1087613;31;20576;-78
2022/03/19 01:38:45;;;;;;;48.00;33.20;;;;;;;6.61;67.30;102129.34;1087310;54;20034;-78
2022/03/19 01:39:47;;;;;;;46.17;33.10;;;;;;;6.60;67.37;102127.63;1086749;54;20042;-78
2022/03/19 01:40:51;;;;;;;47.25;33.72;;;;;;;6.69;67.34;102134.28;1087041;54;20061;-78
2022/03/19 01:41:53;;;;;;;48.22;34.95;;;;;;;6.65;66.98;102130.91;1086892;54;20037;-79
2022/03/19 01:42:57;;;;;;;48.58;33.70;;;;;;;6.67;67.08;102122.84;1086738;54;20053;-77
2022/03/19 01:43:59;;;;;;;45.30;33.85;;;;;;;6.64;67.22;102131.00;1087196;54;20039;-78
2022/03/19 01:45:06;;;;;;;47.83;33.80;;;;;;;6.61;67.10;102133.78;1086999;54;20061;-78
2022/03/19 01:46:07;;;;;;;42.95;32.40;;;;;;;6.64;67.19;102129.19;1087372;39;20508;-79
2022/03/19 01:47:12;;;;;;;47.25;34.30;;;;;;;6.67;67.31;102134.38;1086918;54;20030;-78
2022/03/19 01:48:16;;;;;;;51.22;35.03;;;;;;;6.64;66.94;102131.84;1087177;46;20038;-79
2022/03/19 01:49:20;;;;;;;45.75;33.00;;;;;;;6.63;67.22;102130.13;1087622;54;20031;-78
2022/03/19 01:50:26;;;;;;;47.20;32.97;;;;;;;6.64;67.10;102139.81;1087815;54;20046;-78
2022/03/19 01:51:28;;;;;;;42.80;32.22;;;;;;;6.67;66.96;102126.41;1087852;54;20034;-79
2022/03/19 01:52:35;;;;;;;45.35;32.10;;;;;;;6.67;67.17;102126.41;1087430;54;20034;-79
2022/03/19 01:53:40;;;;;;;48.42;31.20;;;;;;;6.66;66.81;102129.13;1087572;54;20058;-78
2022/03/19 01:54:44;;;;;;;45.58;33.30;;;;;;;6.70;66.86;102130.72;1088819;46;20022;-79
2022/03/19 01:55:48;;;;;;;45.15;32.58;;;;;;;6.71;66.75;102132.44;1087669;54;20033;-78
2022/03/19 01:56:52;;;;;;;43.25;32.92;;;;;;;6.69;66.84;102132.50;1086950;54;20030;-78
2022/03/19 01:57:57;;;;;;;46.72;33.72;;;;;;;6.72;66.63;102134.16;1087530;46;20682;-77
2022/03/19 01:59:00;;;;;;;48.80;34.85;;;;;;;6.74;66.65;102123.47;1085944;54;20111;-77
2022/03/19 02:00:05;;;;;;;45.80;34.00;;;;;;;6.69;66.59;102131.63;1085952;54;20038;-77
2022/03/19 02:01:09;;;;;;;46.20;33.28;;;;;;;6.64;66.75;102131.84;1086243;54;20039;-77
2022/03/19 02:02:11;;;;;;;44.38;33.00;;;;;;;6.70;66.64;102125.38;1085615;54;20049;-76
2022/03/19 02:03:15;;;;;;;50.28;34.42;;;;;;;6.67;66.81;102118.44;1086150;54;20049;-77
2022/03/19 02:04:18;;;;;;;48.65;33.78;;;;;;;6.70;66.95;102126.28;1085598;54;20061;-77
2022/03/19 02:05:24;;;;;;;50.25;34.30;;;;;;;6.64;66.84;102126.53;1085393;54;20042;-77
2022/03/19 02:06:26;;;;;;;47.20;33.65;;;;;;;6.70;66.90;102125.38;1085405;54;20038;-77
2022/03/19 02:07:30;;;;;;;47.50;34.03;;;;;;;6.63;67.14;102129.25;1085839;54;20141;-78
2022/03/19 02:08:35;;;;;;;42.63;32.83;;;;;;;6.56;67.32;102121.53;1085993;54;20034;-78
2022/03/19 02:09:40;;;;;;;45.50;32.22;;;;;;;6.59;67.07;102128.53;1085622;54;20061;-80
2022/03/19 02:10:45;;;;;;;43.65;32.78;;;;;;;6.60;67.15;102124.94;1085789;54;20038;-78
2022/03/19 02:11:46;;;;;;;49.83;33.35;;;;;;;6.56;66.98;102121.53;1087456;39;20433;-78
2022/03/19 02:12:53;;;;;;;50.30;33.60;;;;;;;6.54;67.15;102125.19;1086263;54;20042;-77
2022/03/19 02:13:55;;;;;;;45.92;33.33;;;;;;;6.62;67.14;102119.56;1086304;54;20098;-78
2022/03/19 02:14:59;;;;;;;49.78;36.00;;;;;;;6.63;66.99;102130.13;1087423;54;20018;-78
2022/03/19 02:16:01;;;;;;;45.55;32.15;;;;;;;6.57;67.10;102127.75;1088971;46;20058;-77
2022/03/19 02:17:06;;;;;;;43.10;31.83;;;;;;;6.60;67.01;102129.38;1088965;47;20094;-78
2022/03/19 02:18:10;;;;;;;37.90;28.98;;;;;;;6.61;67.17;102123.16;1087965;54;20018;-77
2022/03/19 02:19:12;;;;;;;42.97;31.50;;;;;;;6.59;66.98;102123.22;1088930;47;20049;-77
2022/03/19 02:20:16;;;;;;;47.05;32.42;;;;;;;6.62;67.06;102124.88;1085966;54;20069;-77
2022/03/19 02:21:18;;;;;;;47.50;33.55;;;;;;;6.58;66.92;102120.63;1085898;54;20046;-78
2022/03/19 02:22:23;;;;;;;47.03;31.80;;;;;;;6.54;67.32;102119.88;1085617;54;20038;-77
2022/03/19 02:26:00;;;;;;;45.65;32.75;;;;;;;6.53;66.95;102119.03;1085518;54;20034;-77
2022/03/19 02:27:06;;;;;;;50.08;35.25;;;;;;;6.56;67.29;102115.38;1085580;54;20744;-79
2022/03/19 02:28:10;;;;;;;48.50;33.25;;;;;;;6.58;67.21;102112.63;1085808;54;20053;-77
2022/03/19 02:29:12;;;;;;;46.20;32.72;;;;;;;6.56;66.89;102113.56;1085694;54;20054;-76
2022/03/19 02:30:17;;;;;;;52.30;33.38;;;;;;;6.58;67.08;102116.19;1085695;54;20038;-77
2022/03/19 02:31:19;;;;;;;48.60;33.35;;;;;;;6.58;66.91;102116.19;1085462;54;20041;-77
2022/03/19 02:32:23;;;;;;;45.80;32.90;;;;;;;6.59;67.07;102115.25;1085835;54;20046;-78
2022/03/19 02:33:25;;;;;;;45.15;32.88;;;;;;;6.52;67.34;102112.00;1087510;47;20034;-78
2022/03/19 02:34:30;;;;;;;47.38;32.67;;;;;;;6.48;67.47;102106.88;1086947;54;20034;-78
2022/03/19 02:35:31;;;;;;;48.17;34.35;;;;;;;6.53;67.37;102110.19;1086943;54;20034;-78
2022/03/19 02:36:35;;;;;;;46.65;33.50;;;;;;;6.50;67.18;102108.53;1086822;47;20034;-77
2022/03/19 02:37:38;;;;;;;49.67;34.55;;;;;;;6.48;67.40;102114.84;1087748;39;20452;-78
2022/03/19 02:38:45;;;;;;;50.97;35.15;;;;;;;6.54;67.35;102101.28;1086520;54;20142;-78
2022/03/19 02:39:47;;;;;;;47.78;33.15;;;;;;;6.55;67.21;102113.66;1086934;54;20038;-78
2022/03/19 02:40:51;;;;;;;45.53;33.92;;;;;;;6.61;67.21;102104.53;1087996;47;20035;-78
2022/03/19 02:41:53;;;;;;;46.45;33.65;;;;;;;6.44;67.49;102110.59;1086740;54;20055;-77
2022/03/19 02:42:58;;;;;;;47.45;33.05;;;;;;;6.34;67.89;102108.34;1086817;54;20034;-79
2022/03/19 02:44:00;;;;;;;46.90;32.70;;;;;;;6.30;67.99;102100.56;1086694;54;20061;-77
2022/03/19 02:45:05;;;;;;;50.67;34.50;;;;;;;6.40;67.89;102101.91;1086369;54;20034;-77
2022/03/19 02:46:07;;;;;;;46.53;33.38;;;;;;;6.37;67.75;102102.06;1086962;54;20026;-78
2022/03/19 02:47:11;;;;;;;49.33;34.15;;;;;;;6.47;67.60;102099.84;1086720;54;20062;-78
2022/03/19 02:48:13;;;;;;;51.17;33.88;;;;;;;6.29;68.05;102107.69;1086779;54;20042;-78
2022/03/19 02:49:18;;;;;;;45.80;32.40;;;;;;;6.27;68.26;102101.56;1086178;54;20049;-78
2022/03/19 02:50:19;;;;;;;44.78;32.60;;;;;;;6.24;68.14;102107.00;1086910;54;20049;-77
2022/03/19 02:51:23;;;;;;;46.03;33.70;;;;;;;6.31;68.40;102105.84;1086444;54;20042;-79
2022/03/19 02:52:25;;;;;;;46.58;33.25;;;;;;;6.22;68.56;102103.59;1086461;54;20049;-77
2022/03/19 02:53:29;;;;;;;46.03;32.53;;;;;;;6.16;68.62;102098.50;1086401;54;20045;-78
2022/03/19 02:54:33;;;;;;;46.85;32.60;;;;;;;6.19;68.31;102096.59;1086568;54;20031;-77
2022/03/19 02:55:39;;;;;;;45.92;33.08;;;;;;;6.19;68.70;102101.91;1086701;54;20038;-77
2022/03/19 02:56:42;;;;;;;50.25;32.80;;;;;;;6.16;68.76;102104.72;1086378;54;20049;-78
2022/03/19 02:57:46;;;;;;;45.97;32.88;;;;;;;6.16;68.86;102098.50;1087185;39;20500;-77
2022/03/19 02:58:48;;;;;;;45.33;32.97;;;;;;;6.15;68.87;102097.66;1087043;54;20599;-78
2022/03/19 02:59:52;;;;;;;44.20;31.42;;;;;;;6.15;68.70;102092.34;1086997;54;20045;-76
2022/03/19 03:00:54;;;;;;;45.60;32.85;;;;;;;6.19;68.53;102095.72;1086726;54;20069;-77
2022/03/19 03:01:59;;;;;;;49.15;33.10;;;;;;;6.28;68.40;102095.34;1086642;54;20075;-77
2022/03/19 03:03:01;;;;;;;46.35;32.67;;;;;;;6.24;68.19;102091.06;1086474;54;20043;-78
2022/03/19 03:04:05;;;;;;;48.58;33.80;;;;;;;6.21;68.51;102097.38;1087051;54;20034;-78
2022/03/19 03:05:09;;;;;;;52.13;33.97;;;;;;;6.25;68.32;102092.81;1086785;54;20047;-77
2022/03/19 03:06:14;;;;;;;48.88;33.70;;;;;;;6.29;68.15;102094.41;1086974;54;20030;-77
2022/03/19 03:07:16;;;;;;;49.17;32.72;;;;;;;6.20;68.52;102090.34;1087546;39;20454;-77
2022/03/19 03:08:20;;;;;;;44.08;31.85;;;;;;;6.20;68.46;102094.81;1087252;54;20073;-77
2022/03/19 03:09:23;;;;;;;47.40;32.58;;;;;;;6.21;68.35;102091.22;1087228;54;20045;-77
2022/03/19 03:10:31;;;;;;;43.75;32.25;;;;;;;6.15;68.62;102092.34;1087268;54;20613;-77
2022/03/19 03:11:34;;;;;;;48.20;31.63;;;;;;;6.15;68.50;102092.34;1087136;54;20046;-77
2022/03/19 03:12:39;;;;;;;48.53;34.15;;;;;;;6.16;68.50;102090.53;1087238;54;20022;-77
2022/03/19 03:13:41;;;;;;;45.72;32.63;;;;;;;6.17;68.88;102095.81;1087688;54;20042;-78
2022/03/19 03:14:45;;;;;;;45.25;33.10;;;;;;;6.14;68.75;102100.41;1087139;54;20038;-77
2022/03/19 03:15:47;;;;;;;44.55;32.22;;;;;;;6.18;68.68;102091.34;1087203;54;20038;-78
2022/03/19 03:16:52;;;;;;;46.40;31.70;;;;;;;6.18;68.40;102099.31;1088324;39;20489;-77
2022/03/19 03:17:54;;;;;;;49.15;33.38;;;;;;;6.20;68.34;102084.19;1087219;54;20042;-78
2022/03/19 03:18:59;;;;;;;48.10;34.60;;;;;;;6.21;68.44;102094.72;1087352;54;20019;-78
2022/03/19 03:20:02;;;;;;;50.20;34.35;;;;;;;6.18;68.55;102088.69;1087329;54;20031;-78
2022/03/19 03:21:06;;;;;;;49.25;33.15;;;;;;;6.19;68.63;102088.63;1087323;54;20035;-78
2022/03/19 03:22:09;;;;;;;48.78;33.58;;;;;;;6.17;68.73;102094.94;1087937;39;20747;-78
2022/03/19 03:24:17;;;;;;;48.60;34.28;;;;;;;6.26;68.43;102091.88;1084923;54;20042;-79
2022/03/19 03:25:19;;;;;;;54.92;34.00;;;;;;;6.30;68.28;102093.47;1084674;54;20046;-77
2022/03/19 03:26:26;;;;;;;49.10;33.33;;;;;;;6.16;68.39;102090.53;1085629;39;20687;-77
2022/03/19 03:27:27;;;;;;;49.88;34.55;;;;;;;6.12;68.92;102091.63;1084913;54;20890;-78
2022/03/19 03:28:31;;;;;;;46.17;32.33;;;;;;;6.12;68.85;102091.63;1084748;54;20066;-77
2022/03/19 03:29:33;;;;;;;50.30;33.38;;;;;;;6.13;68.85;102098.66;1084478;54;20043;-78
2022/03/19 03:30:37;;;;;;;52.97;34.40;;;;;;;6.09;68.92;102103.25;1084682;54;20050;-78
2022/03/19 03:31:38;;;;;;;48.83;33.75;;;;;;;6.12;68.97;102099.59;1084855;54;20038;-78
2022/03/19 03:32:43;;;;;;;44.75;31.65;;;;;;;6.13;68.80;102099.50;1085215;46;20592;-77
2022/03/19 03:33:45;;;;;;;45.90;32.90;;;;;;;6.16;68.87;102093.19;1085076;54;20042;-78
2022/03/19 03:34:49;;;;;;;50.40;34.78;;;;;;;6.16;68.72;102091.44;1084889;54;20050;-78
2022/03/19 03:35:50;;;;;;;45.65;31.85;;;;;;;6.16;68.84;102095.84;1085109;54;20035;-78
2022/03/19 03:36:54;;;;;;;44.28;31.05;;;;;;;6.13;68.86;102098.66;1085196;47;20563;-77
2022/03/19 03:37:56;;;;;;;45.22;32.72;;;;;;;6.12;68.64;102095.13;1084673;54;20034;-78
2022/03/19 03:39:00;;;;;;;46.35;31.27;;;;;;;6.15;68.92;102097.66;1085090;39;20425;-77
2022/03/19 03:40:02;;;;;;;46.30;32.17;;;;;;;6.11;68.92;102097.84;1085190;54;20042;-78
2022/03/19 03:41:06;;;;;;;43.53;31.02;;;;;;;6.13;68.66;102098.66;1085775;47;20035;-77
2022/03/19 03:42:11;;;;;;;45.10;34.03;;;;;;;6.12;68.58;102087.16;1085706;54;20030;-78
2022/03/19 03:43:15;;;;;;;45.53;31.58;;;;;;;6.08;68.91;102102.38;1085643;46;20049;-79
2022/03/19 03:44:16;;;;;;;51.17;34.20;;;;;;;6.04;69.00;102095.47;1085653;54;20031;-78
2022/03/19 03:45:21;;;;;;;46.45;33.67;;;;;;;6.03;69.12;102095.53;1086556;46;20567;-78
2022/03/19 03:46:23;;;;;;;48.13;34.65;;;;;;;6.01;69.08;102092.94;1085611;54;20042;-79
2022/03/19 03:47:27;;;;;;;46.78;32.70;;;;;;;6.03;68.90;102104.38;1085695;54;20575;-78
2022/03/19 03:48:35;;;;;;;42.33;31.80;;;;;;;6.04;68.94;102106.09;1087052;39;20406;-78
2022/03/19 03:49:39;;;;;;;40.53;29.30;;;;;;;6.04;69.07;102095.47;1088100;54;20098;-77
2022/03/19 03:50:41;;;;;;;43.13;30.88;;;;;;;6.06;69.13;102098.91;1088231;54;20027;-77
2022/03/19 03:51:45;;;;;;;47.50;33.85;;;;;;;6.06;68.99;102098.91;1088297;54;20030;-77
2022/03/19 03:52:47;;;;;;;41.08;30.23;;;;;;;6.09;68.66;102096.13;1090004;46;20034;-77
2022/03/19 03:53:52;;;;;;;42.78;30.27;;;;;;;6.09;68.81;102093.47;1088092;54;20081;-77
2022/03/19 03:54:54;;;;;;;42.10;31.67;;;;;;;6.12;68.57;102099.59;1088086;39;20727;-78
2022/03/19 03:56:00;;;;;;;46.65;32.38;;;;;;;6.10;68.66;102099.63;1089719;46;20027;-77
2022/03/19 03:57:02;;;;;;;44.22;31.23;;;;;;;6.09;68.41;102096.13;1090467;46;20050;-77
2022/03/19 03:58:09;;;;;;;46.17;31.70;;;;;;;6.13;68.75;102096.00;1087891;54;20042;-77
2022/03/19 03:59:10;;;;;;;39.08;29.83;;;;;;;6.16;68.44;102098.50;1087132;54;20098;-77
2022/03/19 04:00:16;;;;;;;43.20;29.88;;;;;;;6.16;68.44;102093.19;1086300;54;20405;-77
2022/03/19 04:01:17;;;;;;;37.03;28.05;;;;;;;6.20;68.32;102092.16;1085769;54;20039;-79
2022/03/19 04:02:21;;;;;;;37.92;28.52;;;;;;;6.18;68.38;102089.56;1085269;54;20034;-77
2022/03/19 04:03:23;;;;;;;35.70;27.67;;;;;;;6.25;68.34;102082.19;1085424;54;20141;-77
2022/03/19 04:04:28;;;;;;;40.95;28.42;;;;;;;6.27;68.22;102090.94;1085407;54;20637;-77
2022/03/19 04:05:29;;;;;;;40.22;29.10;;;;;;;6.27;68.10;102093.59;1085372;54;20064;-78
2022/03/19 04:06:34;;;;;;;35.78;25.92;;;;;;;6.33;67.93;102082.69;1085611;54;20030;-78
2022/03/19 04:07:35;;;;;;;38.42;27.02;;;;;;;6.26;68.12;102086.56;1085372;54;20031;-78
2022/03/19 04:08:39;;;;;;;44.75;31.67;;;;;;;6.18;68.22;102086.03;1085595;54;20054;-78
2022/03/19 04:09:41;;;;;;;46.08;30.85;;;;;;;6.17;68.49;102089.63;1086524;46;20038;-78
2022/03/19 04:10:45;;;;;;;42.28;30.52;;;;;;;6.20;68.27;102084.19;1085772;54;20050;-78
2022/03/19 04:11:47;;;;;;;44.15;31.58;;;;;;;6.15;68.43;102087.03;1085362;54;20042;-77
2022/03/19 04:12:51;;;;;;;41.13;30.63;;;;;;;6.16;68.39;102091.44;1085122;54;20177;-78
2022/03/19 04:13:55;;;;;;;40.00;29.23;;;;;;;6.16;68.38;102082.56;1085133;54;20045;-78
2022/03/19 04:15:00;;;;;;;44.80;29.23;;;;;;;6.18;68.36;102080.72;1085809;46;20540;-78
2022/03/19 04:16:04;;;;;;;36.00;27.17;;;;;;;6.23;68.10;102079.59;1085575;54;20058;-78
2022/03/19 04:17:06;;;;;;;38.00;28.08;;;;;;;6.20;68.22;102081.53;1086212;46;20107;-78
2022/03/19 04:18:12;;;;;;;36.85;27.80;;;;;;;6.19;67.92;102071.81;1086280;31;20496;-78
2022/03/19 04:19:14;;;;;;;37.83;27.48;;;;;;;6.27;68.02;102076.81;1085780;47;20031;-79
2022/03/19 04:20:19;;;;;;;37.83;27.60;;;;;;;6.24;67.96;102070.69;1086413;46;20034;-79
2022/03/19 04:21:20;;;;;;;33.92;25.67;;;;;;;6.32;68.07;102080.13;1085777;54;20039;-80
2022/03/19 04:22:25;;;;;;;35.78;25.23;;;;;;;6.38;67.64;102078.06;1085578;54;20114;-78
2022/03/19 04:23:29;;;;;;;32.22;23.92;;;;;;;6.43;67.43;102074.31;1085883;54;20042;-78
2022/03/19 04:24:30;;;;;;;37.85;26.00;;;;;;;6.36;67.62;102076.41;1085719;54;20042;-78
2022/03/19 04:25:34;;;;;;;38.65;27.67;;;;;;;6.29;67.63;102078.47;1085963;54;20027;-77
2022/03/19 04:26:36;;;;;;;39.88;28.13;;;;;;;6.29;67.93;102070.50;1086162;39;20555;-78
2022/03/19 04:27:40;;;;;;;37.50;26.98;;;;;;;6.32;67.80;102081.00;1086294;31;20554;-78
2022/03/19 04:28:42;;;;;;;42.60;29.38;;;;;;;6.29;67.88;102078.47;1085695;54;20022;-78
2022/03/19 04:29:49;;;;;;;37.38;27.35;;;;;;;6.26;67.91;102080.41;1085175;54;20533;-78
2022/03/19 04:30:50;;;;;;;41.63;30.27;;;;;;;6.16;68.17;102069.28;1085800;39;20461;-78
2022/03/19 04:31:55;;;;;;;40.00;28.35;;;;;;;6.20;68.20;102063.78;1085823;54;20034;-77
2022/03/19 04:32:59;;;;;;;41.97;28.60;;;;;;;6.19;68.21;102067.38;1085593;54;20624;-78
2022/03/19 04:34:03;;;;;;;40.35;28.95;;;;;;;6.15;67.91;102064.91;1085914;46;20058;-78
2022/03/19 04:36:29;;;;;;;40.97;30.33;;;;;;;6.18;68.05;102063.00;1085683;54;20062;-77
2022/03/19 04:36:30;;;;;;;40.58;27.85;;;;;;;6.18;68.03;102070.09;1085635;54;20042;-78
2022/03/19 04:37:34;;;;;;;43.53;30.25;;;;;;;6.13;68.32;102069.44;1085739;54;20077;-78
2022/03/19 04:38:37;;;;;;;43.58;30.05;;;;;;;6.13;67.99;102059.69;1086021;54;20043;-78
2022/03/19 04:39:42;;;;;;;45.60;30.95;;;;;;;6.05;68.43;102060.00;1085663;54;20058;-78
2022/03/19 04:40:45;;;;;;;41.15;29.63;;;;;;;6.04;68.26;102060.06;1085737;54;20054;-78
2022/03/19 04:41:49;;;;;;;42.88;30.63;;;;;;;6.02;68.79;102060.16;1085502;54;20556;-78
2022/03/19 04:42:51;;;;;;;43.00;30.35;;;;;;;5.93;68.78;102056.06;1085813;54;20045;-78
2022/03/19 04:43:55;;;;;;;44.38;30.27;;;;;;;5.97;68.64;102062.09;1086665;39;20201;-78
2022/03/19 04:44:59;;;;;;;36.97;28.15;;;;;;;6.05;68.52;102064.47;1085533;54;20042;-78
2022/03/19 04:46:03;;;;;;;37.20;27.73;;;;;;;6.07;68.31;102058.16;1085314;54;20610;-78
2022/03/19 04:47:06;;;;;;;40.15;30.05;;;;;;;6.05;68.37;102054.69;1085194;54;20039;-78
2022/03/19 04:48:10;;;;;;;42.97;29.52;;;;;;;6.05;68.44;102052.03;1086097;54;20090;-78
2022/03/19 04:49:12;;;;;;;40.63;29.42;;;;;;;6.02;68.71;102056.63;1086478;54;20031;-78
2022/03/19 04:50:16;;;;;;;44.15;29.65;;;;;;;6.07;68.35;102057.31;1086623;54;20035;-78
2022/03/19 04:51:22;;;;;;;44.15;30.20;;;;;;;6.04;68.65;102063.63;1086628;54;20034;-78
2022/03/19 04:52:23;;;;;;;43.63;29.60;;;;;;;6.10;68.57;102057.16;1085975;54;20556;-78
2022/03/19 04:53:28;;;;;;;40.28;27.52;;;;;;;6.07;68.37;102052.84;1085888;54;20042;-78
2022/03/19 04:54:30;;;;;;;39.38;28.50;;;;;;;6.12;68.35;102052.63;1085666;54;20042;-78
2022/03/19 04:55:34;;;;;;;40.28;28.50;;;;;;;6.08;68.23;102059.03;1085505;54;20041;-78
2022/03/19 04:56:39;;;;;;;42.85;30.75;;;;;;;6.01;68.49;102060.19;1085757;54;20038;-77